sensor_id;sensor_type;location;lat;lon;timestamp;temperature;humidity
71084;DHT22;58741;52.672;13.548;2023-12-20T00:01:03;7.00;99.90
71084;DHT22;58741;52.672;13.548;2023-12-20T00:03:30;6.90;99.90
71084;DHT22;58741;52.672;13.548;2023-12-20T00:06:08;6.90;99.90
71084;DHT22;58741;52.672;13.548;2023-12-20T00:08:35;6.90;99.90
71084;DHT22;58741;52.672;13.548;2023-12-20T00:11:01;6.90;99.90
71084;DHT22;58741;52.672;13.548;2023-12-20T00:13:28;6.90;99.90
71084;DHT22;58741;52.672;13.548;2023-12-20T00:15:55;6.90;99.90
71084;DHT22;58741;52.672;13.548;2023-12-20T00:18:22;6.90;99.90
71084;DHT22;58741;52.672;13.548;2023-12-20T00:20:49;6.90;99.90
71084;DHT22;58741;52.672;13.548;2023-12-20T00:23:16;6.90;99.90
71084;DHT22;58741;52.672;13.548;2023-12-20T00:25:42;6.90;99.90
71084;DHT22;58741;52.672;13.548;2023-12-20T00:28:09;6.90;99.90
71084;DHT22;58741;52.672;13.548;2023-12-20T00:30:36;6.90;99.90
71084;DHT22;58741;52.672;13.548;2023-12-20T00:33:03;6.90;99.90
71084;DHT22;58741;52.672;13.548;2023-12-20T00:35:30;6.90;99.90
71084;DHT22;58741;52.672;13.548;2023-12-20T00:37:59;6.90;99.90
71084;DHT22;58741;52.672;13.548;2023-12-20T00:40:26;6.90;99.90
71084;DHT22;58741;52.672;13.548;2023-12-20T00:42:52;6.90;99.90
71084;DHT22;58741;52.672;13.548;2023-12-20T00:45:19;6.90;99.90
71084;DHT22;58741;52.672;13.548;2023-12-20T00:47:46;6.90;99.90
71084;DHT22;58741;52.672;13.548;2023-12-20T00:50:13;6.90;99.90
71084;DHT22;58741;52.672;13.548;2023-12-20T00:52:40;6.90;99.90
71084;DHT22;58741;52.672;13.548;2023-12-20T00:55:07;6.90;99.90
71084;DHT22;58741;52.672;13.548;2023-12-20T00:57:34;6.90;99.90
71084;DHT22;58741;52.672;13.548;2023-12-20T01:00:01;6.90;99.90
71084;DHT22;58741;52.672;13.548;2023-12-20T01:02:28;6.90;99.90
71084;DHT22;58741;52.672;13.548;2023-12-20T01:04:54;6.90;99.90
71084;DHT22;58741;52.672;13.548;2023-12-20T01:07:21;6.90;99.90
71084;DHT22;58741;52.672;13.548;2023-12-20T01:09:48;6.90;99.90
71084;DHT22;58741;52.672;13.548;2023-12-20T01:12:15;6.90;99.90
71084;DHT22;58741;52.672;13.548;2023-12-20T01:14:41;6.90;99.90
71084;DHT22;58741;52.672;13.548;2023-12-20T01:17:08;6.90;99.90
71084;DHT22;58741;52.672;13.548;2023-12-20T01:19:36;6.90;99.90
71084;DHT22;58741;52.672;13.548;2023-12-20T01:22:03;6.90;99.90
71084;DHT22;58741;52.672;13.548;2023-12-20T01:24:30;6.90;99.90
71084;DHT22;58741;52.672;13.548;2023-12-20T01:26:57;6.90;99.90
71084;DHT22;58741;52.672;13.548;2023-12-20T01:29:23;6.90;99.90
71084;DHT22;58741;52.672;13.548;2023-12-20T01:31:50;6.90;99.90
71084;DHT22;58741;52.672;13.548;2023-12-20T01:34:17;6.90;99.90
71084;DHT22;58741;52.672;13.548;2023-12-20T01:36:44;6.90;99.90
71084;DHT22;58741;52.672;13.548;2023-12-20T01:39:11;6.90;99.90
71084;DHT22;58741;52.672;13.548;2023-12-20T01:41:50;6.90;99.90
71084;DHT22;58741;52.672;13.548;2023-12-20T01:44:17;6.90;99.90
71084;DHT22;58741;52.672;13.548;2023-12-20T01:46:45;6.90;99.90
71084;DHT22;58741;52.672;13.548;2023-12-20T01:49:12;6.90;99.90
71084;DHT22;58741;52.672;13.548;2023-12-20T01:51:39;6.90;99.90
71084;DHT22;58741;52.672;13.548;2023-12-20T01:54:06;6.90;99.90
71084;DHT22;58741;52.672;13.548;2023-12-20T01:56:33;6.90;99.90
71084;DHT22;58741;52.672;13.548;2023-12-20T01:59:00;6.90;99.90
71084;DHT22;58741;52.672;13.548;2023-12-20T02:01:27;6.90;99.90
71084;DHT22;58741;52.672;13.548;2023-12-20T02:03:55;6.90;99.90
71084;DHT22;58741;52.672;13.548;2023-12-20T02:06:23;6.90;99.90
71084;DHT22;58741;52.672;13.548;2023-12-20T02:08:51;6.90;99.90
71084;DHT22;58741;52.672;13.548;2023-12-20T02:11:17;6.90;99.90
71084;DHT22;58741;52.672;13.548;2023-12-20T02:13:44;6.90;99.90
71084;DHT22;58741;52.672;13.548;2023-12-20T02:16:11;6.90;99.90
71084;DHT22;58741;52.672;13.548;2023-12-20T02:18:39;6.90;99.90
71084;DHT22;58741;52.672;13.548;2023-12-20T02:21:06;6.80;99.90
71084;DHT22;58741;52.672;13.548;2023-12-20T02:23:32;6.80;99.90
71084;DHT22;58741;52.672;13.548;2023-12-20T02:25:59;6.80;99.90
71084;DHT22;58741;52.672;13.548;2023-12-20T02:28:26;6.80;99.90
71084;DHT22;58741;52.672;13.548;2023-12-20T02:30:54;6.80;99.90
71084;DHT22;58741;52.672;13.548;2023-12-20T02:33:20;6.80;99.90
71084;DHT22;58741;52.672;13.548;2023-12-20T02:35:47;6.80;99.90
71084;DHT22;58741;52.672;13.548;2023-12-20T02:38:14;6.80;99.90
71084;DHT22;58741;52.672;13.548;2023-12-20T02:40:41;6.80;99.90
71084;DHT22;58741;52.672;13.548;2023-12-20T02:43:15;6.70;99.90
71084;DHT22;58741;52.672;13.548;2023-12-20T02:45:42;6.70;99.90
71084;DHT22;58741;52.672;13.548;2023-12-20T02:48:09;6.70;99.90
71084;DHT22;58741;52.672;13.548;2023-12-20T02:50:36;6.70;99.90
71084;DHT22;58741;52.672;13.548;2023-12-20T02:53:03;6.70;99.90
71084;DHT22;58741;52.672;13.548;2023-12-20T02:55:29;6.60;99.90
71084;DHT22;58741;52.672;13.548;2023-12-20T02:57:56;6.70;99.90
71084;DHT22;58741;52.672;13.548;2023-12-20T03:00:23;6.70;99.90
71084;DHT22;58741;52.672;13.548;2023-12-20T03:02:50;6.60;99.90
71084;DHT22;58741;52.672;13.548;2023-12-20T03:05:17;6.60;99.90
71084;DHT22;58741;52.672;13.548;2023-12-20T03:07:44;6.60;99.90
71084;DHT22;58741;52.672;13.548;2023-12-20T03:10:11;6.60;99.90
71084;DHT22;58741;52.672;13.548;2023-12-20T03:12:49;6.60;99.90
71084;DHT22;58741;52.672;13.548;2023-12-20T03:15:16;6.60;99.90
71084;DHT22;58741;52.672;13.548;2023-12-20T03:17:43;6.60;99.90
71084;DHT22;58741;52.672;13.548;2023-12-20T03:20:11;6.50;99.90
71084;DHT22;58741;52.672;13.548;2023-12-20T03:22:37;6.50;99.90
71084;DHT22;58741;52.672;13.548;2023-12-20T03:25:04;6.50;99.90
71084;DHT22;58741;52.672;13.548;2023-12-20T03:27:31;6.50;99.90
71084;DHT22;58741;52.672;13.548;2023-12-20T03:29:58;6.50;99.90
71084;DHT22;58741;52.672;13.548;2023-12-20T03:32:24;6.50;99.90
71084;DHT22;58741;52.672;13.548;2023-12-20T03:34:51;6.50;99.90
71084;DHT22;58741;52.672;13.548;2023-12-20T03:37:18;6.50;99.90
71084;DHT22;58741;52.672;13.548;2023-12-20T03:39:45;6.50;99.90
71084;DHT22;58741;52.672;13.548;2023-12-20T03:42:11;6.40;99.90
71084;DHT22;58741;52.672;13.548;2023-12-20T03:44:40;6.40;99.90
71084;DHT22;58741;52.672;13.548;2023-12-20T03:47:07;6.40;99.90
71084;DHT22;58741;52.672;13.548;2023-12-20T03:49:34;6.40;99.90
71084;DHT22;58741;52.672;13.548;2023-12-20T03:52:03;6.30;99.90
71084;DHT22;58741;52.672;13.548;2023-12-20T03:54:30;6.30;99.90
71084;DHT22;58741;52.672;13.548;2023-12-20T03:56:57;6.30;99.90
71084;DHT22;58741;52.672;13.548;2023-12-20T03:59:23;6.30;99.90
71084;DHT22;58741;52.672;13.548;2023-12-20T04:01:50;6.20;99.90
71084;DHT22;58741;52.672;13.548;2023-12-20T04:04:17;6.20;99.90
71084;DHT22;58741;52.672;13.548;2023-12-20T04:06:44;6.20;99.90
71084;DHT22;58741;52.672;13.548;2023-12-20T04:09:10;6.10;99.90
71084;DHT22;58741;52.672;13.548;2023-12-20T04:11:38;6.10;99.90
71084;DHT22;58741;52.672;13.548;2023-12-20T04:14:05;6.10;99.90
71084;DHT22;58741;52.672;13.548;2023-12-20T04:16:32;6.00;99.90
71084;DHT22;58741;52.672;13.548;2023-12-20T04:18:58;6.00;99.90
71084;DHT22;58741;52.672;13.548;2023-12-20T04:21:25;6.00;99.90
71084;DHT22;58741;52.672;13.548;2023-12-20T04:23:52;6.00;99.90
71084;DHT22;58741;52.672;13.548;2023-12-20T04:26:19;5.90;99.90
71084;DHT22;58741;52.672;13.548;2023-12-20T04:28:45;5.90;99.90
71084;DHT22;58741;52.672;13.548;2023-12-20T04:31:12;5.90;99.90
71084;DHT22;58741;52.672;13.548;2023-12-20T04:33:39;5.90;99.90
71084;DHT22;58741;52.672;13.548;2023-12-20T04:36:06;5.90;99.90
71084;DHT22;58741;52.672;13.548;2023-12-20T04:38:32;5.80;99.90
71084;DHT22;58741;52.672;13.548;2023-12-20T04:40:59;5.80;99.90
71084;DHT22;58741;52.672;13.548;2023-12-20T04:43:26;5.80;99.90
71084;DHT22;58741;52.672;13.548;2023-12-20T04:45:52;5.70;99.90
71084;DHT22;58741;52.672;13.548;2023-12-20T04:48:19;5.70;99.90
71084;DHT22;58741;52.672;13.548;2023-12-20T04:50:46;5.70;99.90
71084;DHT22;58741;52.672;13.548;2023-12-20T04:53:13;5.70;99.90
71084;DHT22;58741;52.672;13.548;2023-12-20T04:55:39;5.70;99.90
71084;DHT22;58741;52.672;13.548;2023-12-20T04:58:06;5.70;99.90
71084;DHT22;58741;52.672;13.548;2023-12-20T05:00:33;5.60;99.90
71084;DHT22;58741;52.672;13.548;2023-12-20T05:02:59;5.60;99.90
71084;DHT22;58741;52.672;13.548;2023-12-20T05:05:26;5.60;99.90
71084;DHT22;58741;52.672;13.548;2023-12-20T05:07:53;5.60;99.90
71084;DHT22;58741;52.672;13.548;2023-12-20T05:10:20;5.60;99.90
71084;DHT22;58741;52.672;13.548;2023-12-20T05:12:47;5.60;99.90
71084;DHT22;58741;52.672;13.548;2023-12-20T05:15:13;5.70;99.90
71084;DHT22;58741;52.672;13.548;2023-12-20T05:17:40;5.70;99.90
71084;DHT22;58741;52.672;13.548;2023-12-20T05:20:08;5.70;99.90
71084;DHT22;58741;52.672;13.548;2023-12-20T05:22:34;5.70;99.90
71084;DHT22;58741;52.672;13.548;2023-12-20T05:25:01;5.70;99.90
71084;DHT22;58741;52.672;13.548;2023-12-20T05:27:28;5.70;99.90
71084;DHT22;58741;52.672;13.548;2023-12-20T05:29:54;5.60;99.90
71084;DHT22;58741;52.672;13.548;2023-12-20T05:32:24;5.60;99.90
71084;DHT22;58741;52.672;13.548;2023-12-20T05:34:50;5.60;99.90
71084;DHT22;58741;52.672;13.548;2023-12-20T05:37:17;5.60;99.90
71084;DHT22;58741;52.672;13.548;2023-12-20T05:39:44;5.50;99.90
71084;DHT22;58741;52.672;13.548;2023-12-20T05:42:10;5.50;99.90
71084;DHT22;58741;52.672;13.548;2023-12-20T05:44:37;5.40;99.90
71084;DHT22;58741;52.672;13.548;2023-12-20T05:47:04;5.40;99.90
71084;DHT22;58741;52.672;13.548;2023-12-20T05:49:30;5.40;99.90
71084;DHT22;58741;52.672;13.548;2023-12-20T05:51:58;5.30;99.90
71084;DHT22;58741;52.672;13.548;2023-12-20T05:54:25;5.30;99.90
71084;DHT22;58741;52.672;13.548;2023-12-20T05:56:51;5.30;99.90
71084;DHT22;58741;52.672;13.548;2023-12-20T05:59:18;5.30;99.90
71084;DHT22;58741;52.672;13.548;2023-12-20T06:01:45;5.20;99.90
71084;DHT22;58741;52.672;13.548;2023-12-20T06:04:11;5.20;99.90
71084;DHT22;58741;52.672;13.548;2023-12-20T06:06:42;5.20;99.90
71084;DHT22;58741;52.672;13.548;2023-12-20T06:09:10;5.10;99.90
71084;DHT22;58741;52.672;13.548;2023-12-20T06:11:37;5.10;99.90
71084;DHT22;58741;52.672;13.548;2023-12-20T06:14:04;5.10;99.90
71084;DHT22;58741;52.672;13.548;2023-12-20T06:16:31;5.10;99.90
71084;DHT22;58741;52.672;13.548;2023-12-20T06:18:58;5.10;99.90
71084;DHT22;58741;52.672;13.548;2023-12-20T06:21:25;5.10;99.90
71084;DHT22;58741;52.672;13.548;2023-12-20T06:23:51;5.10;99.90
71084;DHT22;58741;52.672;13.548;2023-12-20T06:26:18;5.10;99.90
71084;DHT22;58741;52.672;13.548;2023-12-20T06:28:45;5.10;99.90
71084;DHT22;58741;52.672;13.548;2023-12-20T06:31:11;5.10;99.90
71084;DHT22;58741;52.672;13.548;2023-12-20T06:33:38;5.10;99.90
71084;DHT22;58741;52.672;13.548;2023-12-20T06:36:07;5.10;99.90
71084;DHT22;58741;52.672;13.548;2023-12-20T06:38:37;5.00;99.90
71084;DHT22;58741;52.672;13.548;2023-12-20T06:41:03;5.00;99.90
71084;DHT22;58741;52.672;13.548;2023-12-20T06:43:30;5.00;99.90
71084;DHT22;58741;52.672;13.548;2023-12-20T06:46:14;5.00;99.90
71084;DHT22;58741;52.672;13.548;2023-12-20T06:48:41;5.00;99.90
71084;DHT22;58741;52.672;13.548;2023-12-20T06:51:14;5.00;99.90
71084;DHT22;58741;52.672;13.548;2023-12-20T06:53:41;5.00;99.90
71084;DHT22;58741;52.672;13.548;2023-12-20T06:56:11;5.00;99.90
71084;DHT22;58741;52.672;13.548;2023-12-20T06:58:42;5.00;99.90
71084;DHT22;58741;52.672;13.548;2023-12-20T07:01:13;5.00;99.90
71084;DHT22;58741;52.672;13.548;2023-12-20T07:03:40;5.00;99.90
71084;DHT22;58741;52.672;13.548;2023-12-20T07:06:07;5.00;99.90
71084;DHT22;58741;52.672;13.548;2023-12-20T07:08:34;5.00;99.90
71084;DHT22;58741;52.672;13.548;2023-12-20T07:11:01;5.00;99.90
71084;DHT22;58741;52.672;13.548;2023-12-20T07:13:29;5.00;99.90
71084;DHT22;58741;52.672;13.548;2023-12-20T07:15:56;5.00;99.90
71084;DHT22;58741;52.672;13.548;2023-12-20T07:18:22;5.00;99.90
71084;DHT22;58741;52.672;13.548;2023-12-20T07:20:49;5.00;99.90
71084;DHT22;58741;52.672;13.548;2023-12-20T07:23:16;5.00;99.90
71084;DHT22;58741;52.672;13.548;2023-12-20T07:25:42;5.10;99.90
71084;DHT22;58741;52.672;13.548;2023-12-20T07:28:09;5.00;99.90
71084;DHT22;58741;52.672;13.548;2023-12-20T07:30:36;5.10;99.90
71084;DHT22;58741;52.672;13.548;2023-12-20T07:33:03;5.10;99.90
71084;DHT22;58741;52.672;13.548;2023-12-20T07:35:30;5.10;99.90
71084;DHT22;58741;52.672;13.548;2023-12-20T07:37:56;5.10;99.90
71084;DHT22;58741;52.672;13.548;2023-12-20T07:40:23;5.10;99.90
71084;DHT22;58741;52.672;13.548;2023-12-20T07:42:50;5.10;99.90
71084;DHT22;58741;52.672;13.548;2023-12-20T07:45:17;5.10;99.90
71084;DHT22;58741;52.672;13.548;2023-12-20T07:47:44;5.10;99.90
71084;DHT22;58741;52.672;13.548;2023-12-20T07:50:11;5.10;99.90
71084;DHT22;58741;52.672;13.548;2023-12-20T07:52:38;5.20;99.90
71084;DHT22;58741;52.672;13.548;2023-12-20T07:55:05;5.20;99.90
71084;DHT22;58741;52.672;13.548;2023-12-20T07:57:33;5.20;99.90
71084;DHT22;58741;52.672;13.548;2023-12-20T08:00:00;5.20;99.90
71084;DHT22;58741;52.672;13.548;2023-12-20T08:02:30;5.20;99.90
71084;DHT22;58741;52.672;13.548;2023-12-20T08:04:56;5.20;99.90
71084;DHT22;58741;52.672;13.548;2023-12-20T08:07:23;5.20;99.90
71084;DHT22;58741;52.672;13.548;2023-12-20T08:09:50;5.20;99.90
71084;DHT22;58741;52.672;13.548;2023-12-20T08:12:18;5.30;99.90
71084;DHT22;58741;52.672;13.548;2023-12-20T08:14:45;5.30;99.90
71084;DHT22;58741;52.672;13.548;2023-12-20T08:17:12;5.30;99.90
71084;DHT22;58741;52.672;13.548;2023-12-20T08:19:39;5.30;99.90
71084;DHT22;58741;52.672;13.548;2023-12-20T08:22:06;5.30;99.90
71084;DHT22;58741;52.672;13.548;2023-12-20T08:24:32;5.30;99.90
71084;DHT22;58741;52.672;13.548;2023-12-20T08:26:59;5.30;99.90
71084;DHT22;58741;52.672;13.548;2023-12-20T08:29:26;5.30;99.90
71084;DHT22;58741;52.672;13.548;2023-12-20T08:31:53;5.30;99.90
71084;DHT22;58741;52.672;13.548;2023-12-20T08:34:20;5.30;99.90
71084;DHT22;58741;52.672;13.548;2023-12-20T08:36:48;5.30;99.90
71084;DHT22;58741;52.672;13.548;2023-12-20T08:39:14;5.40;99.90
71084;DHT22;58741;52.672;13.548;2023-12-20T08:41:42;5.40;99.90
71084;DHT22;58741;52.672;13.548;2023-12-20T08:44:09;5.40;99.90
71084;DHT22;58741;52.672;13.548;2023-12-20T08:46:36;5.40;99.90
71084;DHT22;58741;52.672;13.548;2023-12-20T08:49:02;5.40;99.90
71084;DHT22;58741;52.672;13.548;2023-12-20T08:51:29;5.40;99.90
71084;DHT22;58741;52.672;13.548;2023-12-20T08:53:56;5.40;99.90
71084;DHT22;58741;52.672;13.548;2023-12-20T08:56:23;5.40;99.90
71084;DHT22;58741;52.672;13.548;2023-12-20T08:58:49;5.40;99.90
71084;DHT22;58741;52.672;13.548;2023-12-20T09:01:16;5.50;99.90
71084;DHT22;58741;52.672;13.548;2023-12-20T09:03:43;5.50;99.90
71084;DHT22;58741;52.672;13.548;2023-12-20T09:06:10;5.50;99.90
71084;DHT22;58741;52.672;13.548;2023-12-20T09:08:37;5.60;99.90
71084;DHT22;58741;52.672;13.548;2023-12-20T09:11:03;5.60;99.90
71084;DHT22;58741;52.672;13.548;2023-12-20T09:13:31;5.60;99.90
71084;DHT22;58741;52.672;13.548;2023-12-20T09:15:58;5.60;99.90
71084;DHT22;58741;52.672;13.548;2023-12-20T09:18:25;5.60;99.90
71084;DHT22;58741;52.672;13.548;2023-12-20T09:20:52;5.60;99.90
71084;DHT22;58741;52.672;13.548;2023-12-20T09:23:19;5.60;99.90
71084;DHT22;58741;52.672;13.548;2023-12-20T09:25:45;5.60;99.90
71084;DHT22;58741;52.672;13.548;2023-12-20T09:28:12;5.70;99.90
71084;DHT22;58741;52.672;13.548;2023-12-20T09:30:39;5.70;99.90
71084;DHT22;58741;52.672;13.548;2023-12-20T09:33:07;5.70;99.90
71084;DHT22;58741;52.672;13.548;2023-12-20T09:35:34;5.70;99.90
71084;DHT22;58741;52.672;13.548;2023-12-20T09:38:02;5.70;99.90
71084;DHT22;58741;52.672;13.548;2023-12-20T09:40:29;5.70;99.90
71084;DHT22;58741;52.672;13.548;2023-12-20T09:43:03;5.70;99.90
71084;DHT22;58741;52.672;13.548;2023-12-20T09:45:31;5.70;99.90
71084;DHT22;58741;52.672;13.548;2023-12-20T09:47:58;5.70;99.90
71084;DHT22;58741;52.672;13.548;2023-12-20T09:50:25;5.70;99.90
71084;DHT22;58741;52.672;13.548;2023-12-20T09:52:53;5.70;99.90
71084;DHT22;58741;52.672;13.548;2023-12-20T09:55:22;5.70;99.90
71084;DHT22;58741;52.672;13.548;2023-12-20T09:57:51;5.80;99.90
71084;DHT22;58741;52.672;13.548;2023-12-20T10:00:18;5.80;99.90
71084;DHT22;58741;52.672;13.548;2023-12-20T10:02:54;5.80;99.90
71084;DHT22;58741;52.672;13.548;2023-12-20T10:05:30;5.80;99.90
71084;DHT22;58741;52.672;13.548;2023-12-20T10:07:58;5.80;99.90
71084;DHT22;58741;52.672;13.548;2023-12-20T10:10:26;5.80;99.90
71084;DHT22;58741;52.672;13.548;2023-12-20T10:13:09;5.90;99.90
71084;DHT22;58741;52.672;13.548;2023-12-20T10:15:40;5.90;99.90
71084;DHT22;58741;52.672;13.548;2023-12-20T10:18:08;5.90;99.90
71084;DHT22;58741;52.672;13.548;2023-12-20T10:20:35;5.80;99.90
71084;DHT22;58741;52.672;13.548;2023-12-20T10:23:02;5.90;99.90
71084;DHT22;58741;52.672;13.548;2023-12-20T10:25:29;5.90;99.90
71084;DHT22;58741;52.672;13.548;2023-12-20T10:28:16;6.00;99.90
71084;DHT22;58741;52.672;13.548;2023-12-20T10:30:47;6.00;99.90
71084;DHT22;58741;52.672;13.548;2023-12-20T10:33:24;6.10;99.90
71084;DHT22;58741;52.672;13.548;2023-12-20T10:35:52;6.00;99.90
71084;DHT22;58741;52.672;13.548;2023-12-20T10:38:19;6.10;99.90
71084;DHT22;58741;52.672;13.548;2023-12-20T10:40:46;6.10;99.90
71084;DHT22;58741;52.672;13.548;2023-12-20T10:43:13;6.10;99.90
71084;DHT22;58741;52.672;13.548;2023-12-20T10:45:42;6.10;99.90
71084;DHT22;58741;52.672;13.548;2023-12-20T10:48:11;6.10;99.90
71084;DHT22;58741;52.672;13.548;2023-12-20T10:50:41;6.10;99.90
71084;DHT22;58741;52.672;13.548;2023-12-20T10:53:07;6.10;99.90
71084;DHT22;58741;52.672;13.548;2023-12-20T10:55:34;6.10;99.90
71084;DHT22;58741;52.672;13.548;2023-12-20T10:58:06;6.10;99.90
71084;DHT22;58741;52.672;13.548;2023-12-20T11:00:38;6.20;99.90
71084;DHT22;58741;52.672;13.548;2023-12-20T11:03:09;6.20;99.90
71084;DHT22;58741;52.672;13.548;2023-12-20T11:05:59;6.20;99.90
71084;DHT22;58741;52.672;13.548;2023-12-20T11:08:35;6.10;99.90
71084;DHT22;58741;52.672;13.548;2023-12-20T11:11:23;6.10;99.90
71084;DHT22;58741;52.672;13.548;2023-12-20T11:14:05;6.10;99.90
71084;DHT22;58741;52.672;13.548;2023-12-20T11:16:37;6.10;99.90
71084;DHT22;58741;52.672;13.548;2023-12-20T11:19:17;6.10;99.90
71084;DHT22;58741;52.672;13.548;2023-12-20T11:21:46;6.10;99.90
71084;DHT22;58741;52.672;13.548;2023-12-20T11:24:13;6.10;99.90
71084;DHT22;58741;52.672;13.548;2023-12-20T11:26:47;6.10;99.90
71084;DHT22;58741;52.672;13.548;2023-12-20T11:29:36;6.20;99.90
71084;DHT22;58741;52.672;13.548;2023-12-20T11:34:58;6.20;99.90
71084;DHT22;58741;52.672;13.548;2023-12-20T11:37:35;6.10;99.90
71084;DHT22;58741;52.672;13.548;2023-12-20T11:40:07;6.10;99.90
71084;DHT22;58741;52.672;13.548;2023-12-20T11:42:43;6.20;99.90
71084;DHT22;58741;52.672;13.548;2023-12-20T11:45:14;6.10;99.90
71084;DHT22;58741;52.672;13.548;2023-12-20T11:47:43;6.20;99.90
71084;DHT22;58741;52.672;13.548;2023-12-20T11:50:12;6.20;99.90
71084;DHT22;58741;52.672;13.548;2023-12-20T11:52:38;6.20;99.90
71084;DHT22;58741;52.672;13.548;2023-12-20T11:55:05;6.10;99.90
71084;DHT22;58741;52.672;13.548;2023-12-20T11:57:32;6.20;99.90
71084;DHT22;58741;52.672;13.548;2023-12-20T11:59:59;6.10;99.90
71084;DHT22;58741;52.672;13.548;2023-12-20T12:02:26;6.20;99.90
71084;DHT22;58741;52.672;13.548;2023-12-20T12:04:53;6.20;99.90
71084;DHT22;58741;52.672;13.548;2023-12-20T12:07:20;6.20;99.90
71084;DHT22;58741;52.672;13.548;2023-12-20T12:09:46;6.20;99.90
71084;DHT22;58741;52.672;13.548;2023-12-20T12:12:13;6.20;99.90
71084;DHT22;58741;52.672;13.548;2023-12-20T12:14:40;6.20;99.90
71084;DHT22;58741;52.672;13.548;2023-12-20T12:17:11;6.20;99.90
71084;DHT22;58741;52.672;13.548;2023-12-20T12:19:39;6.20;99.90
71084;DHT22;58741;52.672;13.548;2023-12-20T12:22:13;6.20;99.90
71084;DHT22;58741;52.672;13.548;2023-12-20T12:24:46;6.20;99.90
71084;DHT22;58741;52.672;13.548;2023-12-20T12:27:13;6.20;99.90
71084;DHT22;58741;52.672;13.548;2023-12-20T12:29:40;6.20;99.90
71084;DHT22;58741;52.672;13.548;2023-12-20T12:32:08;6.20;99.90
71084;DHT22;58741;52.672;13.548;2023-12-20T12:34:35;6.20;99.90
71084;DHT22;58741;52.672;13.548;2023-12-20T12:37:05;6.20;99.90
71084;DHT22;58741;52.672;13.548;2023-12-20T12:39:32;6.10;99.90
71084;DHT22;58741;52.672;13.548;2023-12-20T12:41:59;6.20;99.90
71084;DHT22;58741;52.672;13.548;2023-12-20T12:44:25;6.10;99.90
71084;DHT22;58741;52.672;13.548;2023-12-20T12:46:52;6.10;99.90
71084;DHT22;58741;52.672;13.548;2023-12-20T12:49:20;6.10;99.90
71084;DHT22;58741;52.672;13.548;2023-12-20T12:51:48;6.10;99.90
71084;DHT22;58741;52.672;13.548;2023-12-20T12:54:15;6.10;99.90
71084;DHT22;58741;52.672;13.548;2023-12-20T12:56:43;6.10;99.90
71084;DHT22;58741;52.672;13.548;2023-12-20T12:59:10;6.00;99.90
71084;DHT22;58741;52.672;13.548;2023-12-20T13:01:37;6.00;99.90
71084;DHT22;58741;52.672;13.548;2023-12-20T13:04:05;6.00;99.90
71084;DHT22;58741;52.672;13.548;2023-12-20T13:06:37;6.00;99.90
71084;DHT22;58741;52.672;13.548;2023-12-20T13:09:04;5.90;99.90
71084;DHT22;58741;52.672;13.548;2023-12-20T13:11:31;5.90;99.90
71084;DHT22;58741;52.672;13.548;2023-12-20T13:13:58;5.90;99.90
71084;DHT22;58741;52.672;13.548;2023-12-20T13:16:25;5.80;99.90
71084;DHT22;58741;52.672;13.548;2023-12-20T13:18:52;5.60;99.90
71084;DHT22;58741;52.672;13.548;2023-12-20T13:21:19;5.60;99.90
71084;DHT22;58741;52.672;13.548;2023-12-20T13:23:45;5.60;99.90
71084;DHT22;58741;52.672;13.548;2023-12-20T13:26:12;5.50;99.90
71084;DHT22;58741;52.672;13.548;2023-12-20T13:28:39;5.50;99.90
71084;DHT22;58741;52.672;13.548;2023-12-20T13:31:05;5.50;99.90
71084;DHT22;58741;52.672;13.548;2023-12-20T13:33:32;5.50;99.90
71084;DHT22;58741;52.672;13.548;2023-12-20T13:35:59;5.40;99.90
71084;DHT22;58741;52.672;13.548;2023-12-20T13:38:27;5.40;99.90
71084;DHT22;58741;52.672;13.548;2023-12-20T13:40:54;5.50;99.90
71084;DHT22;58741;52.672;13.548;2023-12-20T13:43:20;5.50;99.90
71084;DHT22;58741;52.672;13.548;2023-12-20T13:45:48;5.50;99.90
71084;DHT22;58741;52.672;13.548;2023-12-20T13:48:15;5.50;99.90
71084;DHT22;58741;52.672;13.548;2023-12-20T13:50:42;5.50;99.90
71084;DHT22;58741;52.672;13.548;2023-12-20T13:53:09;5.50;99.90
71084;DHT22;58741;52.672;13.548;2023-12-20T13:55:35;5.50;99.90
71084;DHT22;58741;52.672;13.548;2023-12-20T13:58:02;5.50;99.90
71084;DHT22;58741;52.672;13.548;2023-12-20T14:00:29;5.50;99.90
71084;DHT22;58741;52.672;13.548;2023-12-20T14:02:56;5.50;99.90
71084;DHT22;58741;52.672;13.548;2023-12-20T14:05:23;5.50;99.90
71084;DHT22;58741;52.672;13.548;2023-12-20T14:07:54;5.50;99.90
71084;DHT22;58741;52.672;13.548;2023-12-20T14:10:24;5.50;99.90
71084;DHT22;58741;52.672;13.548;2023-12-20T14:12:54;5.40;99.90
71084;DHT22;58741;52.672;13.548;2023-12-20T14:15:21;5.40;99.90
71084;DHT22;58741;52.672;13.548;2023-12-20T14:17:48;5.40;99.90
71084;DHT22;58741;52.672;13.548;2023-12-20T14:20:15;5.30;99.90
71084;DHT22;58741;52.672;13.548;2023-12-20T14:22:42;5.30;99.90
71084;DHT22;58741;52.672;13.548;2023-12-20T14:25:11;5.30;99.90
71084;DHT22;58741;52.672;13.548;2023-12-20T14:27:39;5.30;99.90
71084;DHT22;58741;52.672;13.548;2023-12-20T14:30:07;5.30;99.90
71084;DHT22;58741;52.672;13.548;2023-12-20T14:32:35;5.30;99.90
71084;DHT22;58741;52.672;13.548;2023-12-20T14:35:08;5.20;99.90
71084;DHT22;58741;52.672;13.548;2023-12-20T14:37:36;5.20;99.90
71084;DHT22;58741;52.672;13.548;2023-12-20T14:40:10;5.20;99.90
71084;DHT22;58741;52.672;13.548;2023-12-20T14:42:44;5.20;99.90
71084;DHT22;58741;52.672;13.548;2023-12-20T14:45:11;5.20;99.90
71084;DHT22;58741;52.672;13.548;2023-12-20T14:47:39;5.20;99.90
71084;DHT22;58741;52.672;13.548;2023-12-20T14:50:06;5.20;99.90
71084;DHT22;58741;52.672;13.548;2023-12-20T14:52:34;5.20;99.90
71084;DHT22;58741;52.672;13.548;2023-12-20T14:55:01;5.10;99.90
71084;DHT22;58741;52.672;13.548;2023-12-20T14:57:31;5.10;99.90
71084;DHT22;58741;52.672;13.548;2023-12-20T14:59:58;5.10;99.90
71084;DHT22;58741;52.672;13.548;2023-12-20T15:02:25;5.10;99.90
71084;DHT22;58741;52.672;13.548;2023-12-20T15:04:51;5.10;99.90
71084;DHT22;58741;52.672;13.548;2023-12-20T15:07:19;5.00;99.90
71084;DHT22;58741;52.672;13.548;2023-12-20T15:09:45;5.00;99.90
71084;DHT22;58741;52.672;13.548;2023-12-20T15:12:14;4.90;99.90
71084;DHT22;58741;52.672;13.548;2023-12-20T15:14:41;5.00;99.90
71084;DHT22;58741;52.672;13.548;2023-12-20T15:17:07;4.90;99.90
71084;DHT22;58741;52.672;13.548;2023-12-20T15:19:34;4.90;99.90
71084;DHT22;58741;52.672;13.548;2023-12-20T15:22:01;4.90;99.90
71084;DHT22;58741;52.672;13.548;2023-12-20T15:24:28;4.80;99.90
71084;DHT22;58741;52.672;13.548;2023-12-20T15:27:04;4.80;99.90
71084;DHT22;58741;52.672;13.548;2023-12-20T15:29:31;4.80;99.90
71084;DHT22;58741;52.672;13.548;2023-12-20T15:31:58;4.70;99.90
71084;DHT22;58741;52.672;13.548;2023-12-20T15:34:24;4.70;99.90
71084;DHT22;58741;52.672;13.548;2023-12-20T15:36:51;4.70;99.90